Time;durP1;ratioP1;P1;durP2;ratioP2;P2;SDS_P1;SDS_P2;PMS_P1;PMS_P2;Temp;Humidity;BMP_temperature;BMP_pressure;BME280_temperature;BME280_humidity;BME280_pressure;Samples;Min_cycle;Max_cycle;Signal;HPM_P1;HPM_P2
2021/10/11 00:00:56;;;;;;;;;;;20.60;55.00;;;;;;5012471;28;1079;-70
2021/10/11 00:03:21;;;;;;;;;;;20.60;55.00;;;;;;5011115;28;1965;-69
2021/10/11 00:05:46;;;;;;;;;;;20.60;55.10;;;;;;5012723;28;1075;-69
2021/10/11 00:08:12;;;;;;;;;;;20.60;55.10;;;;;;5012436;28;1143;-70
2021/10/11 00:10:37;;;;;;;;;;;20.60;55.10;;;;;;5012226;28;1036;-69
2021/10/11 00:13:03;;;;;;;;;;;20.60;55.20;;;;;;5012647;28;1267;-70
2021/10/11 00:15:28;;;;;;;;;;;20.60;55.20;;;;;;5012254;28;1075;-70
2021/10/11 00:17:55;;;;;;;;;;;20.60;55.20;;;;;;5012448;28;1432;-70
2021/10/11 00:20:20;;;;;;;;;;;20.60;55.30;;;;;;5012170;28;1360;-70
2021/10/11 00:22:45;;;;;;;;;;;20.60;55.30;;;;;;5012087;28;1898;-70
2021/10/11 00:25:11;;;;;;;;;;;20.50;55.90;;;;;;5012349;28;1096;-70
2021/10/11 00:27:36;;;;;;;;;;;20.50;55.30;;;;;;5011541;28;1323;-70
2021/10/11 00:30:03;;;;;;;;;;;20.50;55.40;;;;;;5010937;28;1079;-70
2021/10/11 00:32:28;;;;;;;;;;;20.50;55.40;;;;;;5011030;28;1326;-69
2021/10/11 00:34:54;;;;;;;;;;;20.50;55.40;;;;;;5012871;28;1051;-70
2021/10/11 00:37:19;;;;;;;;;;;20.50;55.50;;;;;;5012386;28;1071;-70
2021/10/11 00:39:45;;;;;;;;;;;20.50;55.50;;;;;;5012565;28;1142;-70
2021/10/11 00:42:10;;;;;;;;;;;20.50;55.50;;;;;;5010465;28;1963;-69
2021/10/11 00:44:35;;;;;;;;;;;20.50;55.50;;;;;;5011155;28;1087;-70
2021/10/11 00:47:01;;;;;;;;;;;20.50;55.50;;;;;;5012241;28;1048;-70
2021/10/11 00:49:26;;;;;;;;;;;20.50;55.60;;;;;;5011342;28;1298;-70
2021/10/11 00:51:52;;;;;;;;;;;20.50;55.60;;;;;;5011679;28;1378;-70
2021/10/11 00:54:17;;;;;;;;;;;20.50;55.60;;;;;;5012361;28;1361;-70
2021/10/11 00:56:43;;;;;;;;;;;20.50;55.60;;;;;;5011890;28;1382;-70
2021/10/11 00:59:08;;;;;;;;;;;20.50;55.60;;;;;;5013683;28;1281;-70
2021/10/11 01:01:34;;;;;;;;;;;20.50;55.60;;;;;;5014079;28;1229;-70
2021/10/11 01:04:04;;;;;;;;;;;20.50;55.70;;;;;;5015785;28;1898;-70
2021/10/11 01:06:30;;;;;;;;;;;20.50;55.70;;;;;;4998557;28;1327;-70
2021/10/11 01:08:55;;;;;;;;;;;20.50;55.70;;;;;;5016138;28;1267;-70
2021/10/11 01:11:21;;;;;;;;;;;20.50;55.70;;;;;;5015087;28;1288;-69
2021/10/11 01:13:46;;;;;;;;;;;20.50;55.80;;;;;;5015868;28;1084;-70
2021/10/11 01:16:12;;;;;;;;;;;20.50;55.80;;;;;;5015370;28;1265;-70
2021/10/11 01:18:37;;;;;;;;;;;20.50;55.80;;;;;;5015201;28;1115;-69
2021/10/11 01:21:02;;;;;;;;;;;20.50;55.80;;;;;;5015129;28;1089;-70
2021/10/11 01:23:28;;;;;;;;;;;20.50;55.80;;;;;;5015299;28;1894;-69
2021/10/11 01:25:53;;;;;;;;;;;20.50;55.80;;;;;;5014215;28;1420;-69
2021/10/11 01:28:19;;;;;;;;;;;20.50;55.80;;;;;;5015314;28;1056;-69
2021/10/11 01:30:44;;;;;;;;;;;20.50;55.90;;;;;;5014160;28;1091;-70
2021/10/11 01:33:10;;;;;;;;;;;20.60;55.90;;;;;;5014845;28;1248;-70
2021/10/11 01:35:35;;;;;;;;;;;20.50;55.90;;;;;;5013981;28;1099;-70
2021/10/11 01:38:01;;;;;;;;;;;20.60;55.90;;;;;;5013966;28;1249;-69
2021/10/11 01:40:26;;;;;;;;;;;20.50;55.90;;;;;;5014684;28;1272;-70
2021/10/11 01:42:52;;;;;;;;;;;20.60;55.90;;;;;;5013743;28;1955;-70
2021/10/11 01:45:18;;;;;;;;;;;20.50;55.90;;;;;;5014805;28;1289;-70
2021/10/11 01:47:43;;;;;;;;;;;20.60;56.00;;;;;;5013485;28;1183;-70
2021/10/11 01:50:08;;;;;;;;;;;20.50;56.00;;;;;;5014738;28;1329;-70
2021/10/11 01:52:35;;;;;;;;;;;20.60;56.10;;;;;;5015166;28;1215;-70
2021/10/11 01:55:01;;;;;;;;;;;20.60;56.10;;;;;;5014826;28;1158;-70
2021/10/11 01:57:27;;;;;;;;;;;20.60;56.10;;;;;;5015282;28;1120;-69
2021/10/11 01:59:52;;;;;;;;;;;20.60;56.10;;;;;;5014567;28;1574;-70
2021/10/11 02:02:17;;;;;;;;;;;20.50;56.10;;;;;;5014286;28;1906;-70
2021/10/11 02:04:43;;;;;;;;;;;20.50;56.70;;;;;;5013502;28;1123;-69
2021/10/11 02:07:08;;;;;;;;;;;20.50;56.10;;;;;;5013218;28;1430;-69
2021/10/11 02:09:34;;;;;;;;;;;20.50;56.20;;;;;;5012725;28;1095;-69
2021/10/11 02:11:59;;;;;;;;;;;20.50;56.20;;;;;;5012690;28;1273;-70
2021/10/11 02:14:25;;;;;;;;;;;20.60;56.20;;;;;;5014505;28;1294;-70
2021/10/11 02:16:50;;;;;;;;;;;20.50;56.20;;;;;;5014034;28;1325;-70
2021/10/11 02:19:15;;;;;;;;;;;20.50;56.80;;;;;;5014770;28;1103;-70
2021/10/11 02:21:41;;;;;;;;;;;20.50;56.20;;;;;;5013772;28;1751;-69
2021/10/11 02:24:06;;;;;;;;;;;20.50;56.20;;;;;;5014079;28;1970;-70
2021/10/11 02:26:32;;;;;;;;;;;20.50;56.20;;;;;;5014326;28;1115;-70
2021/10/11 02:28:57;;;;;;;;;;;20.50;56.30;;;;;;5013160;28;1212;-70
2021/10/11 02:31:22;;;;;;;;;;;20.50;56.30;;;;;;5012317;28;1310;-70
2021/10/11 02:33:49;;;;;;;;;;;20.50;56.30;;;;;;5014139;28;1148;-70
2021/10/11 02:36:14;;;;;;;;;;;20.50;56.30;;;;;;5013859;28;1335;-70
2021/10/11 02:38:40;;;;;;;;;;;20.50;56.40;;;;;;5013671;28;1355;-70
2021/10/11 02:41:05;;;;;;;;;;;20.50;56.40;;;;;;4999160;28;1110;-70
2021/10/11 02:43:31;;;;;;;;;;;20.50;56.40;;;;;;5014061;28;1980;-70
2021/10/11 02:45:56;;;;;;;;;;;20.50;56.40;;;;;;5013790;28;1385;-70
2021/10/11 02:48:21;;;;;;;;;;;20.50;56.40;;;;;;5013469;28;1115;-70
2021/10/11 02:50:47;;;;;;;;;;;20.50;56.50;;;;;;5013313;28;1103;-70
2021/10/11 02:53:13;;;;;;;;;;;20.50;56.50;;;;;;5013446;28;1192;-70
2021/10/11 02:55:38;;;;;;;;;;;20.50;56.50;;;;;;5013268;28;1310;-70
2021/10/11 02:58:03;;;;;;;;;;;20.50;56.50;;;;;;5013997;28;1271;-70
2021/10/11 03:00:29;;;;;;;;;;;20.50;56.50;;;;;;5013650;28;1088;-69
2021/10/11 03:02:54;;;;;;;;;;;20.50;56.60;;;;;;5011930;28;1915;-70
2021/10/11 03:05:20;;;;;;;;;;;20.50;56.60;;;;;;5013590;28;1330;-70
2021/10/11 03:07:45;;;;;;;;;;;20.50;56.60;;;;;;5012043;28;1127;-70
2021/10/11 03:10:10;;;;;;;;;;;20.50;57.20;;;;;;5012383;28;1085;-70
2021/10/11 03:12:36;;;;;;;;;;;20.50;56.60;;;;;;5015584;28;1365;-69
2021/10/11 03:15:05;;;;;;;;;;;20.50;56.70;;;;;;5013620;28;1368;-70
2021/10/11 03:17:30;;;;;;;;;;;20.50;56.70;;;;;;5012638;28;1084;-70
2021/10/11 03:19:56;;;;;;;;;;;20.50;56.70;;;;;;5013419;28;1472;-70
2021/10/11 03:22:21;;;;;;;;;;;20.50;56.70;;;;;;5013251;28;2065;-70
2021/10/11 03:24:46;;;;;;;;;;;20.50;56.80;;;;;;5012874;28;1359;-70
2021/10/11 03:27:12;;;;;;;;;;;20.50;56.80;;;;;;5013099;28;1072;-69
2021/10/11 03:29:37;;;;;;;;;;;20.50;56.80;;;;;;5012377;28;1042;-70
2021/10/11 03:32:03;;;;;;;;;;;20.50;56.80;;;;;;5011180;28;1319;-70
2021/10/11 03:34:28;;;;;;;;;;;20.50;56.80;;;;;;5013328;28;1387;-70
2021/10/11 03:36:54;;;;;;;;;;;20.50;56.80;;;;;;5012223;28;1372;-70
2021/10/11 03:39:19;;;;;;;;;;;20.50;56.80;;;;;;5013524;28;1347;-69
2021/10/11 03:41:45;;;;;;;;;;;20.50;56.80;;;;;;5012571;28;1334;-70
2021/10/11 03:44:10;;;;;;;;;;;20.50;56.80;;;;;;5012577;28;1954;-70
2021/10/11 03:46:35;;;;;;;;;;;20.50;56.80;;;;;;5012153;28;1271;-70
2021/10/11 03:49:02;;;;;;;;;;;20.50;56.80;;;;;;5013339;28;1686;-70
2021/10/11 03:51:27;;;;;;;;;;;20.60;56.80;;;;;;5011610;28;1184;-70
2021/10/11 03:53:53;;;;;;;;;;;20.60;56.70;;;;;;5011828;28;1087;-70
2021/10/11 03:56:18;;;;;;;;;;;20.60;56.70;;;;;;5011647;28;1135;-70
2021/10/11 03:58:43;;;;;;;;;;;20.60;56.60;;;;;;5012613;28;1218;-70
2021/10/11 04:01:09;;;;;;;;;;;20.60;56.60;;;;;;5012323;28;1503;-70
2021/10/11 04:03:34;;;;;;;;;;;20.70;56.60;;;;;;5012700;28;1969;-70
2021/10/11 04:06:00;;;;;;;;;;;20.70;56.50;;;;;;5012700;28;1267;-69
2021/10/11 04:08:34;;;;;;;;;;;20.70;56.50;;;;;;5011302;28;1353;-70
2021/10/11 04:11:10;;;;;;;;;;;20.70;56.40;;;;;;5010957;28;1309;-70
2021/10/11 04:13:36;;;;;;;;;;;20.70;56.40;;;;;;5012798;28;1368;-70
2021/10/11 04:16:01;;;;;;;;;;;20.70;56.30;;;;;;5012725;28;1111;-70
2021/10/11 04:18:27;;;;;;;;;;;20.80;56.40;;;;;;5011086;28;1368;-70
2021/10/11 04:20:52;;;;;;;;;;;20.80;56.30;;;;;;5012414;28;1397;-69
2021/10/11 04:23:18;;;;;;;;;;;20.80;56.30;;;;;;5012254;28;1899;-69
2021/10/11 04:25:43;;;;;;;;;;;20.80;56.30;;;;;;5012212;28;1280;-69
2021/10/11 04:28:10;;;;;;;;;;;20.80;56.30;;;;;;5013007;28;1369;-70
2021/10/11 04:30:36;;;;;;;;;;;20.80;56.30;;;;;;5012181;28;1376;-70
2021/10/11 04:33:02;;;;;;;;;;;20.80;56.20;;;;;;5011864;28;1378;-70
2021/10/11 04:35:27;;;;;;;;;;;20.80;56.20;;;;;;5000729;28;1831;-71
2021/10/11 04:37:52;;;;;;;;;;;20.80;56.20;;;;;;5007669;28;1858;-71
2021/10/11 04:40:18;;;;;;;;;;;20.80;56.20;;;;;;5008565;28;1134;-71
2021/10/11 04:42:44;;;;;;;;;;;20.80;56.20;;;;;;5014807;28;1902;-71
2021/10/11 04:45:09;;;;;;;;;;;20.90;56.20;;;;;;5004069;28;2140;-71
2021/10/11 04:47:35;;;;;;;;;;;20.90;56.30;;;;;;5008812;28;1972;-71
2021/10/11 04:50:00;;;;;;;;;;;20.90;56.20;;;;;;5012650;28;1259;-72
2021/10/11 04:52:26;;;;;;;;;;;20.90;56.20;;;;;;5014466;28;1320;-71
2021/10/11 04:54:51;;;;;;;;;;;20.90;56.20;;;;;;5015903;28;1279;-70
2021/10/11 04:57:17;;;;;;;;;;;20.90;56.20;;;;;;5014665;28;1322;-70
2021/10/11 04:59:42;;;;;;;;;;;20.90;56.20;;;;;;5014671;28;1264;-69
2021/10/11 05:02:07;;;;;;;;;;;20.90;56.20;;;;;;5014849;28;1906;-70
2021/10/11 05:04:33;;;;;;;;;;;20.90;56.20;;;;;;5016298;28;1289;-70
2021/10/11 05:06:58;;;;;;;;;;;20.90;56.20;;;;;;5013755;28;1342;-71
2021/10/11 05:09:24;;;;;;;;;;;20.90;56.20;;;;;;5015481;28;1075;-72
2021/10/11 05:11:49;;;;;;;;;;;20.90;56.20;;;;;;5013809;28;1295;-70
2021/10/11 05:14:14;;;;;;;;;;;20.90;56.20;;;;;;5014738;28;1279;-70
2021/10/11 05:16:40;;;;;;;;;;;20.90;56.20;;;;;;5015141;28;1444;-69
2021/10/11 05:19:06;;;;;;;;;;;20.90;56.20;;;;;;5014438;28;1182;-70
2021/10/11 05:21:31;;;;;;;;;;;20.90;56.20;;;;;;5013780;28;1313;-70
2021/10/11 05:23:57;;;;;;;;;;;20.90;56.20;;;;;;5014625;28;2012;-69
2021/10/11 05:26:23;;;;;;;;;;;20.90;56.30;;;;;;5012418;28;1445;-68
2021/10/11 05:28:48;;;;;;;;;;;20.90;56.20;;;;;;5014034;28;1341;-69
2021/10/11 05:31:13;;;;;;;;;;;20.90;56.20;;;;;;5014017;28;1330;-70
2021/10/11 05:33:39;;;;;;;;;;;20.90;56.20;;;;;;5012679;28;1390;-71
2021/10/11 05:36:04;;;;;;;;;;;20.90;56.20;;;;;;5004417;28;2159;-72
2021/10/11 05:38:30;;;;;;;;;;;20.90;56.20;;;;;;5008562;28;2229;-74
2021/10/11 05:40:55;;;;;;;;;;;20.90;56.20;;;;;;5013885;28;1253;-70
2021/10/11 05:43:21;;;;;;;;;;;20.90;56.20;;;;;;5013747;28;1959;-70
2021/10/11 05:45:46;;;;;;;;;;;21.00;56.30;;;;;;5011557;28;1326;-74
2021/10/11 05:48:12;;;;;;;;;;;21.00;56.30;;;;;;5013804;28;1123;-73
2021/10/11 05:50:37;;;;;;;;;;;21.00;56.30;;;;;;5013019;28;1247;-72
2021/10/11 05:53:03;;;;;;;;;;;21.00;56.30;;;;;;5014103;28;1396;-72
2021/10/11 05:55:30;;;;;;;;;;;21.00;56.30;;;;;;5013634;28;1270;-70
2021/10/11 05:57:56;;;;;;;;;;;21.00;56.30;;;;;;5013766;28;1391;-72
2021/10/11 06:00:21;;;;;;;;;;;21.00;56.30;;;;;;5013394;28;1343;-72
2021/10/11 06:02:46;;;;;;;;;;;21.00;55.30;;;;;;5013311;28;1968;-71
2021/10/11 06:05:12;;;;;;;;;;;21.00;54.30;;;;;;5012872;28;1336;-72
2021/10/11 06:07:37;;;;;;;;;;;21.00;51.30;;;;;;5012862;28;1346;-70
2021/10/11 06:10:03;;;;;;;;;;;21.00;53.80;;;;;;5013629;28;1489;-71
2021/10/11 06:12:28;;;;;;;;;;;21.00;53.40;;;;;;5013470;28;1697;-72
2021/10/11 06:14:54;;;;;;;;;;;21.00;53.60;;;;;;5012043;28;1481;-72
2021/10/11 06:17:19;;;;;;;;;;;21.00;54.10;;;;;;5013656;28;1356;-71
2021/10/11 06:19:45;;;;;;;;;;;21.00;52.40;;;;;;5013040;28;1274;-70
2021/10/11 06:22:10;;;;;;;;;;;21.00;52.20;;;;;;5013066;28;1965;-73
2021/10/11 06:24:36;;;;;;;;;;;21.00;51.30;;;;;;5011832;28;1328;-71
2021/10/11 06:27:03;;;;;;;;;;;21.00;50.60;;;;;;5012901;28;1282;-73
2021/10/11 06:29:28;;;;;;;;;;;21.10;50.20;;;;;;5013092;28;1092;-72
2021/10/11 06:31:54;;;;;;;;;;;21.20;50.00;;;;;;4995075;28;1307;-72
2021/10/11 06:34:20;;;;;;;;;;;21.30;49.80;;;;;;5013082;28;1326;-72
2021/10/11 06:36:46;;;;;;;;;;;21.40;49.80;;;;;;5013205;28;1069;-72
2021/10/11 06:39:11;;;;;;;;;;;21.50;49.70;;;;;;5011227;28;1070;-72
2021/10/11 06:41:36;;;;;;;;;;;21.60;49.60;;;;;;5011522;28;1325;-71
2021/10/11 06:44:02;;;;;;;;;;;21.70;49.60;;;;;;5012360;28;1902;-72
2021/10/11 06:46:27;;;;;;;;;;;21.80;49.60;;;;;;5012994;28;1234;-73
2021/10/11 06:48:53;;;;;;;;;;;21.90;49.60;;;;;;5015829;28;1255;-71
2021/10/11 06:51:18;;;;;;;;;;;22.00;49.60;;;;;;5021224;28;1343;-71
2021/10/11 06:53:44;;;;;;;;;;;22.00;49.60;;;;;;5012517;28;1253;-71
2021/10/11 06:56:09;;;;;;;;;;;22.10;49.60;;;;;;5012050;28;1265;-71
2021/10/11 06:58:34;;;;;;;;;;;22.20;49.70;;;;;;5012780;28;1304;-71
2021/10/11 07:01:00;;;;;;;;;;;22.30;49.70;;;;;;5012605;28;1254;-71
2021/10/11 07:03:26;;;;;;;;;;;22.30;49.70;;;;;;4995994;28;1910;-71
2021/10/11 07:06:03;;;;;;;;;;;22.40;49.70;;;;;;5012163;28;1311;-71
2021/10/11 07:08:29;;;;;;;;;;;22.40;49.70;;;;;;5012279;28;1266;-71
2021/10/11 07:10:55;;;;;;;;;;;22.50;49.70;;;;;;5012702;28;1304;-71
2021/10/11 07:13:23;;;;;;;;;;;22.50;49.70;;;;;;5013624;28;1360;-71
2021/10/11 07:15:49;;;;;;;;;;;22.50;49.80;;;;;;5011975;28;1299;-71
2021/10/11 07:18:14;;;;;;;;;;;22.60;49.80;;;;;;5012133;28;1423;-71
2021/10/11 07:20:43;;;;;;;;;;;22.60;49.80;;;;;;5012731;28;1971;-70
2021/10/11 07:23:09;;;;;;;;;;;22.60;49.80;;;;;;5012993;28;1891;-71
2021/10/11 07:25:34;;;;;;;;;;;22.70;49.90;;;;;;5011410;28;1467;-71
2021/10/11 07:28:02;;;;;;;;;;;22.70;49.90;;;;;;5011660;28;1306;-71
2021/10/11 07:30:28;;;;;;;;;;;22.70;49.90;;;;;;4995309;28;1322;-72
2021/10/11 07:32:53;;;;;;;;;;;22.70;50.00;;;;;;5011586;28;1493;-71
2021/10/11 07:35:19;;;;;;;;;;;22.70;50.00;;;;;;5013360;28;1138;-72
2021/10/11 07:37:44;;;;;;;;;;;22.80;50.10;;;;;;5012566;28;1491;-73
2021/10/11 07:40:10;;;;;;;;;;;22.80;50.10;;;;;;5012466;28;1309;-72
2021/10/11 07:42:35;;;;;;;;;;;22.80;50.10;;;;;;5012831;28;1967;-72
2021/10/11 07:45:02;;;;;;;;;;;22.80;50.20;;;;;;5012606;28;1294;-71
2021/10/11 07:47:28;;;;;;;;;;;22.80;50.30;;;;;;5012569;28;1366;-72
2021/10/11 07:49:53;;;;;;;;;;;22.80;50.30;;;;;;5012409;28;1458;-72
2021/10/11 07:52:19;;;;;;;;;;;22.90;50.50;;;;;;5012323;28;1333;-72
2021/10/11 07:54:44;;;;;;;;;;;22.80;50.50;;;;;;5011464;28;1315;-72
2021/10/11 07:57:10;;;;;;;;;;;22.90;50.60;;;;;;5012555;28;1324;-71
2021/10/11 07:59:35;;;;;;;;;;;22.90;50.70;;;;;;5008960;28;1348;-72
2021/10/11 08:02:00;;;;;;;;;;;22.90;51.00;;;;;;5009664;28;1560;-71
2021/10/11 08:04:26;;;;;;;;;;;22.90;51.30;;;;;;5011287;28;1894;-72
2021/10/11 08:06:51;;;;;;;;;;;22.90;51.60;;;;;;5009705;28;1615;-72
2021/10/11 08:09:17;;;;;;;;;;;22.90;51.90;;;;;;5010018;28;1377;-72
2021/10/11 08:11:43;;;;;;;;;;;22.90;51.90;;;;;;5008353;28;1366;-72
2021/10/11 08:14:08;;;;;;;;;;;22.90;52.10;;;;;;5010978;28;1324;-71
2021/10/11 08:16:34;;;;;;;;;;;22.90;52.20;;;;;;5010631;28;1693;-72
2021/10/11 08:18:59;;;;;;;;;;;22.90;52.10;;;;;;5009276;28;1352;-72
2021/10/11 08:21:25;;;;;;;;;;;22.90;52.30;;;;;;5009771;28;1403;-72
2021/10/11 08:23:53;;;;;;;;;;;22.90;52.30;;;;;;5011002;28;1894;-72
2021/10/11 08:26:19;;;;;;;;;;;22.90;52.40;;;;;;5011237;28;1347;-72
2021/10/11 08:28:44;;;;;;;;;;;22.90;52.50;;;;;;5010616;28;1270;-72
2021/10/11 08:31:11;;;;;;;;;;;22.90;52.60;;;;;;5011391;28;1415;-72
2021/10/11 08:33:36;;;;;;;;;;;22.80;52.60;;;;;;5012786;28;1280;-72
2021/10/11 08:36:02;;;;;;;;;;;22.80;52.70;;;;;;5010857;28;1306;-72
2021/10/11 08:38:27;;;;;;;;;;;22.80;52.80;;;;;;4994626;28;1285;-72
2021/10/11 08:40:53;;;;;;;;;;;22.80;52.80;;;;;;5009926;28;1454;-72
2021/10/11 08:43:18;;;;;;;;;;;22.80;53.00;;;;;;5011168;28;1959;-72
2021/10/11 08:45:47;;;;;;;;;;;22.80;53.10;;;;;;5012302;28;1330;-71
2021/10/11 08:48:13;;;;;;;;;;;22.80;53.70;;;;;;5010891;28;1285;-71
2021/10/11 08:50:38;;;;;;;;;;;22.70;53.80;;;;;;5011362;28;1311;-71
2021/10/11 08:53:04;;;;;;;;;;;22.70;53.70;;;;;;5010755;28;1291;-72
2021/10/11 08:55:29;;;;;;;;;;;22.70;54.00;;;;;;5012378;28;1267;-71
2021/10/11 08:57:58;;;;;;;;;;;22.70;54.00;;;;;;5012154;28;1268;-72
2021/10/11 09:00:24;;;;;;;;;;;22.70;54.10;;;;;;5010657;28;1269;-71
2021/10/11 09:02:52;;;;;;;;;;;22.70;54.30;;;;;;5011967;28;1918;-71
2021/10/11 09:05:22;;;;;;;;;;;22.70;54.40;;;;;;5011834;28;1051;-72
2021/10/11 09:07:47;;;;;;;;;;;22.70;54.40;;;;;;5011265;28;1316;-72
2021/10/11 09:10:13;;;;;;;;;;;22.70;54.40;;;;;;5011614;28;1142;-72
2021/10/11 09:12:38;;;;;;;;;;;22.70;54.50;;;;;;5011142;28;1336;-72
2021/10/11 09:15:07;;;;;;;;;;;22.70;54.60;;;;;;5005840;28;1087;-72
2021/10/11 09:17:37;;;;;;;;;;;22.70;54.60;;;;;;5008416;28;1317;-72
2021/10/11 09:20:12;;;;;;;;;;;22.60;54.70;;;;;;4995437;28;1312;-72
2021/10/11 09:22:38;;;;;;;;;;;22.60;54.70;;;;;;5013733;28;1974;-72
2021/10/11 09:25:04;;;;;;;;;;;22.60;54.90;;;;;;5013779;28;1099;-73
2021/10/11 09:27:29;;;;;;;;;;;22.60;54.90;;;;;;5014330;28;1377;-73
2021/10/11 09:29:54;;;;;;;;;;;22.60;54.90;;;;;;5014290;28;1095;-73
2021/10/11 09:32:28;;;;;;;;;;;22.60;55.00;;;;;;5015117;28;1339;-73
2021/10/11 09:34:53;;;;;;;;;;;22.60;55.00;;;;;;5013907;28;1343;-72
2021/10/11 09:37:19;;;;;;;;;;;22.60;55.10;;;;;;5014720;28;1177;-72
2021/10/11 09:39:44;;;;;;;;;;;22.60;55.20;;;;;;5015148;28;1166;-72
2021/10/11 09:42:13;;;;;;;;;;;22.50;55.20;;;;;;4996935;28;1980;-72
2021/10/11 09:44:39;;;;;;;;;;;22.50;55.30;;;;;;5004351;28;1918;-72
2021/10/11 09:47:09;;;;;;;;;;;22.50;55.30;;;;;;5010579;28;1060;-72
2021/10/11 09:49:34;;;;;;;;;;;22.50;55.40;;;;;;5003701;28;1286;-72
2021/10/11 09:52:00;;;;;;;;;;;22.50;55.40;;;;;;5013999;28;1397;-73
2021/10/11 09:54:25;;;;;;;;;;;22.50;56.00;;;;;;5014996;28;1254;-72
2021/10/11 09:56:51;;;;;;;;;;;22.50;55.40;;;;;;5013636;28;1152;-72
2021/10/11 09:59:16;;;;;;;;;;;22.50;55.50;;;;;;5013491;28;1082;-72
2021/10/11 10:01:42;;;;;;;;;;;22.50;55.60;;;;;;5012577;28;1368;-73
2021/10/11 10:04:08;;;;;;;;;;;22.50;55.60;;;;;;5013063;28;2038;-72
2021/10/11 10:06:34;;;;;;;;;;;22.40;55.60;;;;;;4996154;28;1485;-72
2021/10/11 10:09:00;;;;;;;;;;;22.50;55.70;;;;;;5014713;28;1329;-73
2021/10/11 10:11:29;;;;;;;;;;;22.50;55.80;;;;;;5012501;28;1382;-72
2021/10/11 10:13:54;;;;;;;;;;;22.50;55.90;;;;;;5013019;28;1292;-72
2021/10/11 10:16:20;;;;;;;;;;;22.50;55.90;;;;;;5014412;28;1123;-72
2021/10/11 10:18:45;;;;;;;;;;;22.50;56.00;;;;;;5014076;28;1253;-72
2021/10/11 10:21:11;;;;;;;;;;;22.50;56.10;;;;;;5012722;28;1126;-72
2021/10/11 10:23:42;;;;;;;;;;;22.50;56.20;;;;;;5013949;28;1967;-72
2021/10/11 10:26:08;;;;;;;;;;;22.40;56.10;;;;;;5013383;28;1262;-72
2021/10/11 10:28:40;;;;;;;;;;;22.50;56.10;;;;;;5014241;28;1293;-71
2021/10/11 10:31:05;;;;;;;;;;;22.40;56.20;;;;;;5013144;28;1024;-71
2021/10/11 10:33:31;;;;;;;;;;;22.40;56.40;;;;;;5013237;28;1284;-71
2021/10/11 10:35:57;;;;;;;;;;;22.40;56.30;;;;;;5012949;28;1336;-71
2021/10/11 10:38:24;;;;;;;;;;;22.50;56.40;;;;;;5012875;28;1424;-71
2021/10/11 10:40:49;;;;;;;;;;;22.50;56.40;;;;;;5013490;28;1257;-71
2021/10/11 10:43:18;;;;;;;;;;;22.50;56.40;;;;;;5012454;28;1910;-71
2021/10/11 10:45:44;;;;;;;;;;;22.50;56.40;;;;;;5013624;28;1285;-71
2021/10/11 10:48:17;;;;;;;;;;;22.50;56.40;;;;;;4992985;28;1218;-71
2021/10/11 10:50:42;;;;;;;;;;;22.50;56.50;;;;;;5010464;28;1356;-72
2021/10/11 10:53:08;;;;;;;;;;;22.50;56.50;;;;;;5013717;28;1332;-72
2021/10/11 10:55:37;;;;;;;;;;;22.50;56.50;;;;;;5011998;28;1259;-72
2021/10/11 10:58:08;;;;;;;;;;;22.50;56.50;;;;;;5014407;28;1059;-72
2021/10/11 11:00:34;;;;;;;;;;;22.50;56.50;;;;;;5012744;28;1315;-72
2021/10/11 11:02:59;;;;;;;;;;;22.40;56.50;;;;;;5014230;28;1952;-73
2021/10/11 11:05:25;;;;;;;;;;;22.50;56.60;;;;;;5013645;28;1341;-72
2021/10/11 11:07:52;;;;;;;;;;;22.40;56.60;;;;;;5012016;28;1277;-72
2021/10/11 11:10:27;;;;;;;;;;;22.40;56.60;;;;;;5011271;28;1271;-73
2021/10/11 11:12:57;;;;;;;;;;;22.40;56.60;;;;;;5012495;28;1427;-72
2021/10/11 11:15:29;;;;;;;;;;;22.50;56.80;;;;;;5012706;28;1287;-72
2021/10/11 11:17:55;;;;;;;;;;;22.40;56.70;;;;;;5013671;28;1290;-72
2021/10/11 11:20:23;;;;;;;;;;;22.40;56.80;;;;;;5012192;28;1338;-72
2021/10/11 11:22:49;;;;;;;;;;;22.50;56.90;;;;;;5012102;28;1957;-72
2021/10/11 11:25:14;;;;;;;;;;;22.40;56.90;;;;;;4992826;28;1281;-72
2021/10/11 11:27:41;;;;;;;;;;;22.40;56.80;;;;;;5007961;28;1397;-72
2021/10/11 11:30:07;;;;;;;;;;;22.40;56.80;;;;;;5011691;28;1319;-72
2021/10/11 11:32:48;;;;;;;;;;;22.40;56.90;;;;;;5013488;28;1293;-72
2021/10/11 11:35:20;;;;;;;;;;;22.40;57.00;;;;;;5013576;28;1318;-72
2021/10/11 11:37:46;;;;;;;;;;;22.40;57.00;;;;;;5013370;28;1342;-72
2021/10/11 11:40:12;;;;;;;;;;;22.40;57.00;;;;;;5011611;28;1166;-71
2021/10/11 11:42:37;;;;;;;;;;;22.40;57.10;;;;;;5011819;28;1965;-72
2021/10/11 11:45:03;;;;;;;;;;;22.40;57.20;;;;;;5008359;28;1444;-73
2021/10/11 11:47:29;;;;;;;;;;;22.40;57.20;;;;;;5013597;28;1281;-72
2021/10/11 11:49:54;;;;;;;;;;;22.40;57.30;;;;;;5011614;28;1267;-72
2021/10/11 11:52:19;;;;;;;;;;;22.40;57.40;;;;;;5012887;28;1333;-73
2021/10/11 11:54:52;;;;;;;;;;;22.40;57.50;;;;;;5013072;28;1278;-73
2021/10/11 11:57:18;;;;;;;;;;;22.40;57.50;;;;;;5012593;28;1341;-73
2021/10/11 11:59:43;;;;;;;;;;;22.40;57.60;;;;;;5011283;28;1357;-73
2021/10/11 12:02:10;;;;;;;;;;;22.40;57.50;;;;;;5010291;28;1405;-72
2021/10/11 12:04:35;;;;;;;;;;;22.50;57.60;;;;;;5011489;28;1911;-73
2021/10/11 12:07:01;;;;;;;;;;;22.40;56.60;;;;;;5011742;28;1300;-72
2021/10/11 12:09:27;;;;;;;;;;;22.40;55.50;;;;;;5011880;28;1289;-72
2021/10/11 12:12:02;;;;;;;;;;;22.40;55.10;;;;;;5011375;28;1326;-73
2021/10/11 12:14:28;;;;;;;;;;;22.30;54.70;;;;;;5012845;28;1348;-73
2021/10/11 12:17:00;;;;;;;;;;;22.30;54.40;;;;;;5010544;28;1335;-72
2021/10/11 12:19:27;;;;;;;;;;;22.30;54.30;;;;;;5009320;28;1472;-73
2021/10/11 12:21:53;;;;;;;;;;;22.30;54.20;;;;;;5019946;28;1216;-73
2021/10/11 12:24:18;;;;;;;;;;;22.30;53.70;;;;;;5016688;28;1902;-74
2021/10/11 12:26:51;;;;;;;;;;;22.30;53.50;;;;;;5011151;28;1282;-73
2021/10/11 12:29:16;;;;;;;;;;;22.20;53.40;;;;;;5012483;28;1407;-74
2021/10/11 12:31:42;;;;;;;;;;;22.20;53.30;;;;;;5006460;28;1294;-73
2021/10/11 12:34:11;;;;;;;;;;;22.20;53.20;;;;;;5011296;28;1415;-74
2021/10/11 12:36:46;;;;;;;;;;;22.20;53.20;;;;;;5011885;28;1242;-73
2021/10/11 12:39:12;;;;;;;;;;;22.10;53.10;;;;;;5012146;28;1334;-74
2021/10/11 12:41:37;;;;;;;;;;;22.10;52.90;;;;;;5010435;28;1313;-74
2021/10/11 12:44:04;;;;;;;;;;;22.10;52.90;;;;;;5011416;28;1914;-74
2021/10/11 12:46:39;;;;;;;;;;;22.10;52.90;;;;;;5011065;28;1334;-74
2021/10/11 12:49:05;;;;;;;;;;;22.10;52.90;;;;;;5010687;28;1106;-74
2021/10/11 12:51:31;;;;;;;;;;;22.00;52.60;;;;;;5011436;28;1365;-73
2021/10/11 12:54:03;;;;;;;;;;;22.10;52.90;;;;;;5012873;28;1258;-73
2021/10/11 12:56:28;;;;;;;;;;;22.00;52.60;;;;;;5015337;28;1234;-73
2021/10/11 12:59:04;;;;;;;;;;;22.00;52.60;;;;;;5014311;28;1337;-73
2021/10/11 13:01:29;;;;;;;;;;;22.00;52.70;;;;;;5014465;28;1362;-72
2021/10/11 13:03:55;;;;;;;;;;;22.00;53.50;;;;;;5014854;28;1906;-73
2021/10/11 13:06:21;;;;;;;;;;;21.90;52.70;;;;;;5014255;28;1273;-73
2021/10/11 13:08:47;;;;;;;;;;;22.00;52.70;;;;;;4998129;28;1703;-72
2021/10/11 13:11:12;;;;;;;;;;;21.90;52.60;;;;;;5014870;28;1268;-73
2021/10/11 13:13:37;;;;;;;;;;;21.90;52.80;;;;;;5014061;28;1212;-73
2021/10/11 13:16:03;;;;;;;;;;;21.90;52.80;;;;;;5013701;28;1288;-72
2021/10/11 13:18:29;;;;;;;;;;;21.90;52.60;;;;;;5014461;28;1336;-72
2021/10/11 13:20:54;;;;;;;;;;;21.90;52.80;;;;;;5013829;28;1173;-72
2021/10/11 13:23:20;;;;;;;;;;;21.80;52.40;;;;;;5014284;28;1962;-71
2021/10/11 13:25:45;;;;;;;;;;;21.90;52.90;;;;;;5015333;28;1276;-71
2021/10/11 13:28:11;;;;;;;;;;;21.80;53.50;;;;;;5013170;28;1423;-73
2021/10/11 14:28:13;;;;;;;;;;;21.90;56.90;;;;;;5020272;28;976;-74
2021/10/11 16:00:18;;;;;;;;;;;21.70;56.80;;;;;;5014783;28;1400;-73
2021/10/11 16:02:45;;;;;;;;;;;21.70;56.80;;;;;;5020059;28;1985;-72
2021/10/11 16:05:13;;;;;;;;;;;21.60;56.80;;;;;;5012484;28;940;-74
2021/10/11 16:07:40;;;;;;;;;;;21.70;56.80;;;;;;5001463;28;1656;-71
2021/10/11 16:10:06;;;;;;;;;;;21.60;56.80;;;;;;4993426;28;1544;-70
2021/10/11 16:12:32;;;;;;;;;;;21.60;56.80;;;;;;5011288;28;1271;-70
2021/10/11 16:14:57;;;;;;;;;;;21.60;56.80;;;;;;5011264;28;1284;-72
2021/10/11 16:17:23;;;;;;;;;;;21.60;56.80;;;;;;5010665;28;1261;-72
2021/10/11 16:19:48;;;;;;;;;;;21.70;56.80;;;;;;5010077;28;1310;-71
2021/10/11 16:22:13;;;;;;;;;;;21.70;56.90;;;;;;5007487;28;1763;-71
2021/10/11 16:24:39;;;;;;;;;;;21.60;56.80;;;;;;5006039;28;1890;-72
2021/10/11 16:27:04;;;;;;;;;;;21.60;56.80;;;;;;5009864;28;1278;-70
2021/10/11 16:29:30;;;;;;;;;;;21.60;56.80;;;;;;5012601;28;1341;-69
2021/10/11 16:31:55;;;;;;;;;;;21.60;56.80;;;;;;5015337;28;1360;-70
2021/10/11 16:34:25;;;;;;;;;;;21.60;56.80;;;;;;5027912;28;1207;-70
2021/10/11 16:36:51;;;;;;;;;;;21.60;56.90;;;;;;5015368;28;1318;-70
2021/10/11 16:39:16;;;;;;;;;;;21.60;56.90;;;;;;5015262;28;1364;-70
2021/10/11 16:41:42;;;;;;;;;;;21.60;56.80;;;;;;5014861;28;1272;-69
2021/10/11 16:44:10;;;;;;;;;;;21.60;56.90;;;;;;5014014;28;1973;-72
2021/10/11 16:46:35;;;;;;;;;;;21.60;56.90;;;;;;5015388;28;1306;-73
2021/10/11 16:49:01;;;;;;;;;;;21.60;56.90;;;;;;5020905;28;1338;-71
2021/10/11 16:51:26;;;;;;;;;;;21.60;56.90;;;;;;5022660;28;1292;-72